Everhartville, Pennsylvania
Current Conditions -  °F | °C
As of 1:56 PM on Friday 21 Nov 2014 (Local Time) from KCXY Reporting Station
Few Clouds Few Clouds  
Wind Chill: -3°   Ceiling: Unl
Heat Index:   Visibility: 10mi
Dew Point: -13°   Wind: 13mph
Humidity: 33%   Direction: 340°NNW
Pressure: 30.42"   Gusts: NA
Location:  40.4932°N, 77.217°W
Report Text: KCXY 211856Z 34011KT 10SM FEW063 02/M13 A3042 RMK AO2 SLP306 T00171133
Loading
Personal Weather Stations






























Interactive Weather Map New forecast layout! Learn more

10-Day Weather Forecast

Advertisements
Track Severe Weather on mobile